createdAt,value
2018-06-16T00:00:41.549Z,19.63
2018-06-16T00:01:41.569Z,19.63
2018-06-16T00:02:41.589Z,19.56
2018-06-16T00:03:41.610Z,19.61
2018-06-16T00:04:41.635Z,19.63
2018-06-16T00:05:41.655Z,19.60
2018-06-16T00:06:41.678Z,19.55
2018-06-16T00:07:41.705Z,19.55
2018-06-16T00:08:41.724Z,19.55
2018-06-16T00:09:41.743Z,19.56
2018-06-16T00:10:41.765Z,19.63
2018-06-16T00:11:41.789Z,19.53
2018-06-16T00:12:41.836Z,19.67
2018-06-16T00:13:41.872Z,19.60
2018-06-16T00:14:41.852Z,19.60
2018-06-16T00:15:41.874Z,19.61
2018-06-16T00:16:41.900Z,19.55
2018-06-16T00:17:41.928Z,19.53
2018-06-16T00:18:41.941Z,19.49
2018-06-16T00:19:41.962Z,19.43
2018-06-16T00:20:41.987Z,19.31
2018-06-16T00:21:42.009Z,19.30
2018-06-16T00:22:42.031Z,19.25
2018-06-16T00:23:42.052Z,19.24
2018-06-16T00:24:42.072Z,19.30
2018-06-16T00:25:42.096Z,19.17
2018-06-16T00:26:42.116Z,19.19
2018-06-16T00:27:42.139Z,19.23
2018-06-16T00:28:42.162Z,19.24
2018-06-16T00:29:42.181Z,19.16
2018-06-16T00:30:42.204Z,19.25
2018-06-16T00:31:42.229Z,19.30
2018-06-16T00:32:42.251Z,19.27
2018-06-16T00:33:42.272Z,19.15
2018-06-16T00:34:42.293Z,19.16
2018-06-16T00:35:42.312Z,19.23
2018-06-16T00:36:42.334Z,19.15
2018-06-16T00:37:42.358Z,19.20
2018-06-16T00:38:42.379Z,19.17
2018-06-16T00:39:42.398Z,19.17
2018-06-16T00:40:42.424Z,19.13
2018-06-16T00:41:42.460Z,19.12
2018-06-16T00:42:42.469Z,19.13
2018-06-16T00:43:42.489Z,19.12
2018-06-16T00:44:42.511Z,19.12
2018-06-16T00:45:42.533Z,19.05
2018-06-16T00:46:42.558Z,19.02
2018-06-16T00:47:42.576Z,19.02
2018-06-16T00:48:42.597Z,18.99
2018-06-16T00:49:42.619Z,19.06
2018-06-16T00:50:42.639Z,18.94
2018-06-16T00:51:42.664Z,18.94
2018-06-16T00:52:42.686Z,19.02
2018-06-16T00:53:42.709Z,19.00
2018-06-16T00:54:42.726Z,19.00
2018-06-16T00:55:42.751Z,18.96
2018-06-16T00:56:42.771Z,19.07
2018-06-16T00:57:42.797Z,18.99
2018-06-16T00:58:42.816Z,19.07
2018-06-16T00:59:42.835Z,19.00
2018-06-16T01:00:42.858Z,19.02
2018-06-16T01:01:42.881Z,18.97
2018-06-16T01:02:42.900Z,19.06
2018-06-16T01:03:42.924Z,19.13
2018-06-16T01:04:42.945Z,19.05
2018-06-16T01:05:42.968Z,19.05
2018-06-16T01:06:42.991Z,18.99
2018-06-16T01:07:43.010Z,19.07
2018-06-16T01:08:43.031Z,19.05
2018-06-16T01:09:43.056Z,19.07
2018-06-16T01:10:43.074Z,19.05
2018-06-16T01:11:43.099Z,19.00
2018-06-16T01:12:43.117Z,19.00
2018-06-16T01:13:43.174Z,19.02
2018-06-16T01:14:43.161Z,19.09
2018-06-16T01:15:43.185Z,19.09
2018-06-16T01:16:43.206Z,19.05
2018-06-16T01:17:43.231Z,19.02
2018-06-16T01:18:43.249Z,19.05
2018-06-16T01:19:43.269Z,19.00
2018-06-16T01:20:43.292Z,19.06
2018-06-16T01:21:43.315Z,19.05
2018-06-16T01:22:43.339Z,19.13
2018-06-16T01:23:43.356Z,19.02
2018-06-16T01:24:43.381Z,19.05
2018-06-16T01:25:43.400Z,19.07
2018-06-16T01:26:43.526Z,19.02
2018-06-16T01:27:43.447Z,19.05
2018-06-16T01:28:43.466Z,19.02
2018-06-16T01:29:43.490Z,19.02
2018-06-16T01:30:43.510Z,19.12
2018-06-16T01:31:43.530Z,18.96
2018-06-16T01:32:43.556Z,19.09
2018-06-16T01:33:43.578Z,19.06
2018-06-16T01:34:43.599Z,18.97
2018-06-16T01:35:43.621Z,18.99
2018-06-16T01:36:43.642Z,18.97
2018-06-16T01:37:43.665Z,19.00
2018-06-16T01:38:43.687Z,18.99
2018-06-16T01:39:43.708Z,18.97
2018-06-16T01:40:43.727Z,18.93
2018-06-16T01:41:43.752Z,18.81
2018-06-16T01:42:43.772Z,18.84
2018-06-16T01:43:43.793Z,18.91
2018-06-16T01:44:43.817Z,18.91
2018-06-16T01:45:43.836Z,18.91
2018-06-16T01:46:43.861Z,18.91
2018-06-16T01:47:43.884Z,18.86
2018-06-16T01:48:43.903Z,18.90
2018-06-16T01:49:43.926Z,18.84
2018-06-16T01:50:43.944Z,18.90
2018-06-16T01:51:43.966Z,18.90
2018-06-16T01:52:43.988Z,18.79
2018-06-16T01:53:44.011Z,18.81
2018-06-16T01:54:44.032Z,18.78
2018-06-16T01:55:44.052Z,18.76
2018-06-16T01:56:44.077Z,18.82
2018-06-16T01:57:44.097Z,18.69
2018-06-16T01:58:44.124Z,18.63
2018-06-16T01:59:44.139Z,18.76
2018-06-16T02:00:44.160Z,18.74
2018-06-16T02:01:44.187Z,18.66
2018-06-16T02:02:44.205Z,18.68
2018-06-16T02:03:44.226Z,18.71
2018-06-16T02:04:44.248Z,18.68
2018-06-16T02:05:44.270Z,18.63
2018-06-16T02:06:44.292Z,18.57
2018-06-16T02:07:44.312Z,18.53
2018-06-16T02:08:44.337Z,18.54
2018-06-16T02:09:44.359Z,18.53
2018-06-16T02:10:44.380Z,18.49
2018-06-16T02:11:44.402Z,18.56
2018-06-16T02:12:44.424Z,18.56
2018-06-16T02:13:44.445Z,18.44
2018-06-16T02:14:44.468Z,18.38
2018-06-16T02:15:44.487Z,18.38
2018-06-16T02:16:44.510Z,18.41
2018-06-16T02:17:44.533Z,18.35
2018-06-16T02:18:44.550Z,18.34
2018-06-16T02:19:44.574Z,18.31
2018-06-16T02:20:44.593Z,18.35
2018-06-16T02:21:44.616Z,18.29
2018-06-16T02:22:44.636Z,18.21
2018-06-16T02:23:44.660Z,18.32
2018-06-16T02:24:44.678Z,18.32
2018-06-16T02:25:44.700Z,18.27
2018-06-16T02:26:44.723Z,18.26
2018-06-16T02:27:44.743Z,18.24
2018-06-16T02:28:44.765Z,18.24
2018-06-16T02:29:44.790Z,18.20
2018-06-16T02:30:44.812Z,18.19
2018-06-16T02:31:44.832Z,18.16
2018-06-16T02:32:44.852Z,18.20
2018-06-16T02:33:44.881Z,18.13
2018-06-16T02:34:44.894Z,18.14
2018-06-16T02:35:44.922Z,18.14
2018-06-16T02:36:44.937Z,18.06
2018-06-16T02:37:44.961Z,18.08
2018-06-16T02:38:44.984Z,18.01
2018-06-16T02:39:45.001Z,18.08
2018-06-16T02:40:45.024Z,18.05
2018-06-16T02:41:45.047Z,18.10
2018-06-16T02:42:45.066Z,18.02
2018-06-16T02:43:45.087Z,18.02
2018-06-16T02:44:45.113Z,18.03
2018-06-16T02:45:45.134Z,18.02
2018-06-16T02:46:45.152Z,18.06
2018-06-16T02:47:45.174Z,18.01
2018-06-16T02:48:45.193Z,18.03
2018-06-16T02:49:45.219Z,18.01
2018-06-16T02:50:45.240Z,17.98
2018-06-16T02:51:45.388Z,17.99
2018-06-16T02:52:45.279Z,17.95
2018-06-16T02:53:45.301Z,17.98
2018-06-16T02:54:45.323Z,17.95
2018-06-16T02:55:45.343Z,17.87
2018-06-16T02:56:45.368Z,17.86
2018-06-16T02:57:45.390Z,17.86
2018-06-16T02:58:45.408Z,17.86
2018-06-16T02:59:45.427Z,17.87
2018-06-16T03:00:45.451Z,17.88
2018-06-16T03:01:45.474Z,17.83
2018-06-16T03:02:45.495Z,17.87
2018-06-16T03:03:45.513Z,17.86
2018-06-16T03:04:45.537Z,17.80
2018-06-16T03:05:45.556Z,17.80
2018-06-16T03:06:45.582Z,17.84
2018-06-16T03:07:45.598Z,17.88
2018-06-16T03:08:45.624Z,17.86
2018-06-16T03:09:45.641Z,17.94
2018-06-16T03:10:45.662Z,17.92
2018-06-16T03:11:45.686Z,17.92
2018-06-16T03:12:45.706Z,17.98
2018-06-16T03:13:45.727Z,17.88
2018-06-16T03:14:45.748Z,17.87
2018-06-16T03:15:45.768Z,17.92
2018-06-16T03:16:45.789Z,17.96
2018-06-16T03:17:45.811Z,17.87
2018-06-16T03:18:45.833Z,17.80
2018-06-16T03:19:45.860Z,17.83
2018-06-16T03:20:45.877Z,17.87
2018-06-16T03:21:45.898Z,17.77
2018-06-16T03:22:45.919Z,17.81
2018-06-16T03:23:45.941Z,17.84
2018-06-16T03:24:45.960Z,17.71
2018-06-16T03:25:45.984Z,17.79
2018-06-16T03:26:46.003Z,17.81
2018-06-16T03:27:46.022Z,17.74
2018-06-16T03:28:46.045Z,17.79
2018-06-16T03:29:46.065Z,17.83
2018-06-16T03:30:46.087Z,17.83
2018-06-16T03:31:46.107Z,17.69
2018-06-16T03:32:46.128Z,17.76
2018-06-16T03:33:46.150Z,17.73
2018-06-16T03:34:46.174Z,17.76
2018-06-16T03:35:46.193Z,17.77
2018-06-16T03:36:46.216Z,17.77
2018-06-16T03:37:46.240Z,17.77
2018-06-16T03:38:46.259Z,17.83
2018-06-16T03:39:46.278Z,17.77
2018-06-16T03:40:46.298Z,17.79
2018-06-16T03:41:46.319Z,17.81
2018-06-16T03:42:46.340Z,17.77
2018-06-16T03:43:46.361Z,17.80
2018-06-16T03:44:46.382Z,17.77
2018-06-16T03:45:46.407Z,17.81
2018-06-16T03:46:46.443Z,17.80
2018-06-16T03:47:46.445Z,17.83
2018-06-16T03:48:46.468Z,17.74
2018-06-16T03:49:46.488Z,17.83
2018-06-16T03:50:46.509Z,17.80
2018-06-16T03:51:46.530Z,17.77
2018-06-16T03:52:46.553Z,17.79
2018-06-16T03:53:46.574Z,17.79
2018-06-16T03:54:46.596Z,17.77
2018-06-16T03:55:46.615Z,17.87
2018-06-16T03:56:46.639Z,17.84
2018-06-16T03:57:46.661Z,17.86
2018-06-16T03:58:46.681Z,17.87
2018-06-16T03:59:46.699Z,17.79
2018-06-16T04:00:46.721Z,17.80
2018-06-16T04:01:46.771Z,17.94
2018-06-16T04:02:46.771Z,17.94
2018-06-16T04:03:46.785Z,17.83
2018-06-16T04:04:46.808Z,17.87
2018-06-16T04:05:46.827Z,17.95
2018-06-16T04:06:46.854Z,17.90
2018-06-16T04:07:46.871Z,17.99
2018-06-16T04:08:46.894Z,17.99
2018-06-16T04:09:46.911Z,18.01
2018-06-16T04:10:46.936Z,18.01
2018-06-16T04:11:46.955Z,18.08
2018-06-16T04:12:46.975Z,18.06
2018-06-16T04:13:46.999Z,18.06
2018-06-16T04:14:47.020Z,17.99
2018-06-16T04:15:47.039Z,18.06
2018-06-16T04:16:47.062Z,18.06
2018-06-16T04:17:47.084Z,18.08
2018-06-16T04:18:47.103Z,18.10
2018-06-16T04:19:47.127Z,18.08
2018-06-16T04:20:47.149Z,18.13
2018-06-16T04:21:47.166Z,18.13
2018-06-16T04:22:47.187Z,18.14
2018-06-16T04:23:47.208Z,18.14
2018-06-16T04:24:47.230Z,18.24
2018-06-16T04:25:47.254Z,18.20
2018-06-16T04:26:47.273Z,18.21
2018-06-16T04:27:47.299Z,18.26
2018-06-16T04:28:47.316Z,18.24
2018-06-16T04:29:47.336Z,18.16
2018-06-16T04:30:47.361Z,18.23
2018-06-16T04:31:47.380Z,18.17
2018-06-16T04:32:47.400Z,18.23
2018-06-16T04:33:47.425Z,18.26
2018-06-16T04:34:47.507Z,18.31
2018-06-16T04:35:47.469Z,18.23
2018-06-16T04:36:47.486Z,18.23
2018-06-16T04:37:47.509Z,18.27
2018-06-16T04:38:47.527Z,18.27
2018-06-16T04:39:47.548Z,18.36
2018-06-16T04:40:47.573Z,18.32
2018-06-16T04:41:47.595Z,18.42
2018-06-16T04:42:47.614Z,18.36
2018-06-16T04:43:47.635Z,18.38
2018-06-16T04:44:47.656Z,18.41
2018-06-16T04:45:47.712Z,18.45
2018-06-16T04:46:47.700Z,18.47
2018-06-16T04:47:47.717Z,18.54
2018-06-16T04:48:47.742Z,18.53
2018-06-16T04:49:47.762Z,18.49
2018-06-16T04:50:47.783Z,18.57
2018-06-16T04:51:47.804Z,18.53
2018-06-16T04:52:47.829Z,18.57
2018-06-16T04:53:47.849Z,18.54
2018-06-16T04:54:47.873Z,18.59
2018-06-16T04:55:47.892Z,18.59
2018-06-16T04:56:47.913Z,18.65
2018-06-16T04:57:47.933Z,18.72
2018-06-16T04:58:47.954Z,18.87
2018-06-16T04:59:47.975Z,18.84
2018-06-16T05:00:47.998Z,18.78
2018-06-16T05:01:48.021Z,18.90
2018-06-16T05:02:48.042Z,18.81
2018-06-16T05:03:48.064Z,18.90
2018-06-16T05:04:48.082Z,18.91
2018-06-16T05:05:48.107Z,18.76
2018-06-16T05:06:48.131Z,18.96
2018-06-16T05:07:48.149Z,18.96
2018-06-16T05:08:48.172Z,19.05
2018-06-16T05:09:48.192Z,19.12
2018-06-16T05:10:48.215Z,19.16
2018-06-16T05:11:48.233Z,19.13
2018-06-16T05:12:48.254Z,19.27
2018-06-16T05:13:48.283Z,19.32
2018-06-16T05:14:48.298Z,19.37
2018-06-16T05:15:48.322Z,19.46
2018-06-16T05:16:48.341Z,19.47
2018-06-16T05:17:48.363Z,19.49
2018-06-16T05:18:48.387Z,19.57
2018-06-16T05:19:48.406Z,19.61
2018-06-16T05:20:48.431Z,19.67
2018-06-16T05:21:48.457Z,19.64
2018-06-16T05:22:48.475Z,19.64
2018-06-16T05:23:48.495Z,19.65
2018-06-16T05:24:48.515Z,19.63
2018-06-16T05:25:48.551Z,19.87
2018-06-16T05:26:48.563Z,19.87
2018-06-16T05:27:48.593Z,19.87
2018-06-16T05:28:48.603Z,19.86
2018-06-16T05:29:48.627Z,19.93
2018-06-16T05:30:48.649Z,19.98
2018-06-16T05:31:48.668Z,19.87
2018-06-16T05:32:48.689Z,19.92
2018-06-16T05:33:48.719Z,19.93
2018-06-16T05:34:48.733Z,19.83
2018-06-16T05:35:48.757Z,19.92
2018-06-16T05:36:48.777Z,19.90
2018-06-16T05:37:48.803Z,19.83
2018-06-16T05:38:48.826Z,19.89
2018-06-16T05:39:48.846Z,20.04
2018-06-16T05:40:48.868Z,20.05
2018-06-16T05:41:48.889Z,20.07
2018-06-16T05:42:48.913Z,20.04
2018-06-16T05:43:48.935Z,20.05
2018-06-16T05:44:48.957Z,20.11
2018-06-16T05:45:48.977Z,20.05
2018-06-16T05:46:49.005Z,20.11
2018-06-16T05:47:49.019Z,20.04
2018-06-16T05:48:49.044Z,19.93
2018-06-16T05:49:49.067Z,20.08
2018-06-16T05:50:49.089Z,20.04
2018-06-16T05:51:49.111Z,20.00
2018-06-16T05:52:49.130Z,20.15
2018-06-16T05:53:49.154Z,20.07
2018-06-16T05:54:49.176Z,20.18
2018-06-16T05:55:49.202Z,20.20
2018-06-16T05:56:49.220Z,20.23
2018-06-16T05:57:49.242Z,20.27
2018-06-16T05:58:49.269Z,20.25
2018-06-16T05:59:49.286Z,20.30
2018-06-16T06:00:49.309Z,20.38
2018-06-16T06:01:49.334Z,20.48
2018-06-16T06:02:49.356Z,20.51
2018-06-16T06:03:49.375Z,20.61
2018-06-16T06:04:49.400Z,20.63
2018-06-16T06:05:49.421Z,20.60
2018-06-16T06:06:49.447Z,20.63
2018-06-16T06:07:49.467Z,20.61
2018-06-16T06:08:49.491Z,20.66
2018-06-16T06:09:49.510Z,20.66
2018-06-16T06:10:49.537Z,20.61
2018-06-16T06:11:49.558Z,20.61
2018-06-16T06:12:49.583Z,20.57
2018-06-16T06:13:49.602Z,20.54
2018-06-16T06:14:49.625Z,20.58
2018-06-16T06:15:49.717Z,20.57
2018-06-16T06:16:49.671Z,20.64
2018-06-16T06:17:49.690Z,20.58
2018-06-16T06:18:49.714Z,20.46
2018-06-16T06:19:49.739Z,20.44
2018-06-16T06:20:49.757Z,20.60
2018-06-16T06:21:49.787Z,20.63
2018-06-16T06:22:49.804Z,20.58
2018-06-16T06:23:49.826Z,20.76
2018-06-16T06:24:49.848Z,20.86
2018-06-16T06:25:49.871Z,20.96
2018-06-16T06:26:49.900Z,21.08
2018-06-16T06:27:49.922Z,21.13
2018-06-16T06:28:49.942Z,21.16
2018-06-16T06:29:49.962Z,21.33
2018-06-16T06:30:49.986Z,21.46
2018-06-16T06:31:50.008Z,21.46
2018-06-16T06:32:50.030Z,21.68
2018-06-16T06:33:50.055Z,21.89
2018-06-16T06:34:50.080Z,21.89
2018-06-16T06:35:50.104Z,21.78
2018-06-16T06:36:50.125Z,21.77
2018-06-16T06:37:50.145Z,21.77
2018-06-16T06:38:50.170Z,21.76
2018-06-16T06:39:50.194Z,21.61
2018-06-16T06:40:50.215Z,21.52
2018-06-16T06:41:50.239Z,21.43
2018-06-16T06:42:50.262Z,21.55
2018-06-16T06:43:50.286Z,21.70
2018-06-16T06:44:50.307Z,21.76
2018-06-16T06:45:50.331Z,21.93
2018-06-16T06:46:50.357Z,21.99
2018-06-16T06:47:50.380Z,22.24
2018-06-16T06:48:50.400Z,22.48
2018-06-16T06:49:50.426Z,22.18
2018-06-16T06:50:50.448Z,21.97
2018-06-16T06:51:50.475Z,22.22
2018-06-16T06:52:50.494Z,22.34
2018-06-16T06:53:50.519Z,22.52
2018-06-16T06:54:50.544Z,22.42
2018-06-16T06:55:50.569Z,22.49
2018-06-16T06:56:50.591Z,22.49
2018-06-16T06:57:50.639Z,22.38
2018-06-16T06:58:50.637Z,22.30
2018-06-16T06:59:50.663Z,22.54
2018-06-16T07:00:50.687Z,22.64
2018-06-16T07:01:50.710Z,22.86
2018-06-16T07:02:50.733Z,22.84
2018-06-16T07:03:50.762Z,22.94
2018-06-16T07:04:50.784Z,22.89
2018-06-16T07:05:50.806Z,22.91
2018-06-16T07:06:50.832Z,23.03
2018-06-16T07:07:50.857Z,23.15
2018-06-16T07:08:50.879Z,23.26
2018-06-16T07:09:50.909Z,23.37
2018-06-16T07:10:50.948Z,23.26
2018-06-16T07:11:50.953Z,23.18
2018-06-16T07:12:50.974Z,23.29
2018-06-16T07:13:50.999Z,23.52
2018-06-16T07:14:51.026Z,23.81
2018-06-16T07:15:51.050Z,23.79
2018-06-16T07:16:51.072Z,23.96
2018-06-16T07:17:51.101Z,23.99
2018-06-16T07:18:51.122Z,23.94
2018-06-16T07:19:51.149Z,23.96
2018-06-16T07:20:51.173Z,24.08
2018-06-16T07:21:51.199Z,24.15
2018-06-16T07:22:51.225Z,24.37
2018-06-16T07:23:51.246Z,24.46
2018-06-16T07:24:51.271Z,24.44
2018-06-16T07:25:51.297Z,24.15
2018-06-16T07:26:51.324Z,24.21
2018-06-16T07:27:51.347Z,24.24
2018-06-16T07:28:51.374Z,24.24
2018-06-16T07:29:51.398Z,24.29
2018-06-16T07:30:51.423Z,24.37
2018-06-16T07:31:51.448Z,24.44
2018-06-16T07:32:51.475Z,24.70
2018-06-16T07:33:51.499Z,24.56
2018-06-16T07:34:51.528Z,24.54
2018-06-16T07:35:51.559Z,24.71
2018-06-16T07:36:51.579Z,25.11
2018-06-16T07:37:51.602Z,24.71
2018-06-16T07:38:51.686Z,24.67
2018-06-16T07:39:51.653Z,24.61
2018-06-16T07:40:51.680Z,24.51
2018-06-16T07:41:51.712Z,24.29
2018-06-16T07:42:51.735Z,24.27
2018-06-16T07:43:51.757Z,24.27
2018-06-16T07:44:51.783Z,24.36
2018-06-16T07:45:51.811Z,24.55
2018-06-16T07:46:51.838Z,24.66
2018-06-16T07:47:51.866Z,24.61
2018-06-16T07:48:51.939Z,24.71
2018-06-16T07:49:51.915Z,24.64
2018-06-16T07:50:51.943Z,24.46
2018-06-16T07:51:51.965Z,24.33
2018-06-16T07:52:51.993Z,24.56
2018-06-16T07:55:52.071Z,24.86
2018-06-16T07:56:52.119Z,24.92
2018-06-16T07:57:52.126Z,24.80
2018-06-16T07:58:52.152Z,24.67
2018-06-16T07:59:52.176Z,24.52
2018-06-16T08:00:52.206Z,24.46
2018-06-16T08:01:52.234Z,24.69
2018-06-16T08:02:52.265Z,24.86
2018-06-16T08:03:52.285Z,25.01
2018-06-16T08:04:52.315Z,25.05
2018-06-16T08:05:52.341Z,25.09
2018-06-16T08:06:52.369Z,25.17
2018-06-16T08:07:52.398Z,25.24
2018-06-16T08:08:52.425Z,25.11
2018-06-16T08:09:52.457Z,24.89
2018-06-16T08:10:52.483Z,24.69
2018-06-16T08:11:52.513Z,24.46
2018-06-16T08:12:52.582Z,24.61
2018-06-16T08:13:52.566Z,24.92
2018-06-16T08:14:52.594Z,25.11
2018-06-16T08:15:52.616Z,25.29
2018-06-16T08:16:52.649Z,25.57
2018-06-16T08:17:52.676Z,25.78
2018-06-16T08:18:52.702Z,26.03
2018-06-16T08:19:52.733Z,25.89
2018-06-16T08:20:52.758Z,25.89
2018-06-16T08:21:52.788Z,25.76
2018-06-16T08:22:52.818Z,25.51
2018-06-16T08:23:52.847Z,25.27
2018-06-16T08:24:52.874Z,25.11
2018-06-16T08:25:53.103Z,25.15
2018-06-16T08:26:52.929Z,25.39
2018-06-16T08:27:52.956Z,25.71
2018-06-16T08:28:52.985Z,25.88
2018-06-16T08:29:53.017Z,25.96
2018-06-16T08:30:53.041Z,25.78
2018-06-16T08:31:53.071Z,25.82
2018-06-16T08:32:53.097Z,25.96
2018-06-16T08:33:53.128Z,25.94
2018-06-16T08:34:53.219Z,26.12
2018-06-16T08:35:53.182Z,26.30
2018-06-16T08:36:53.214Z,26.20
2018-06-16T08:37:53.240Z,26.24
2018-06-16T08:38:53.272Z,25.89
2018-06-16T08:39:53.298Z,25.82
2018-06-16T08:40:53.327Z,25.60
2018-06-16T08:41:53.360Z,25.47
2018-06-16T08:42:53.385Z,25.32
2018-06-16T08:43:53.412Z,25.12
2018-06-16T08:44:53.443Z,25.27
2018-06-16T08:45:53.471Z,25.51
2018-06-16T08:46:53.498Z,25.29
2018-06-16T08:47:53.528Z,25.48
2018-06-16T08:48:53.557Z,25.39
2018-06-16T08:49:53.583Z,25.14
2018-06-16T08:50:53.612Z,25.29
2018-06-16T08:51:53.639Z,25.00
2018-06-16T08:52:53.669Z,24.83
2018-06-16T08:53:53.697Z,24.86
2018-06-16T08:54:53.725Z,25.09
2018-06-16T08:55:53.752Z,25.22
2018-06-16T08:56:53.791Z,25.14
2018-06-16T08:57:53.810Z,25.41
2018-06-16T08:58:53.841Z,25.71
2018-06-16T08:59:53.870Z,25.54
2018-06-16T09:00:53.897Z,25.38
2018-06-16T09:01:53.925Z,25.27
2018-06-16T09:02:53.950Z,25.24
2018-06-16T09:03:53.978Z,25.38
2018-06-16T09:04:54.009Z,25.47
2018-06-16T09:05:54.035Z,25.51
2018-06-16T09:06:54.064Z,25.41
2018-06-16T09:07:54.094Z,25.32
2018-06-16T09:08:54.121Z,25.54
2018-06-16T09:09:54.146Z,25.63
2018-06-16T09:10:54.176Z,25.09
2018-06-16T09:11:54.202Z,24.82
2018-06-16T09:12:54.230Z,24.86
2018-06-16T09:13:54.262Z,25.08
2018-06-16T09:14:54.291Z,25.11
2018-06-16T09:15:54.318Z,25.05
2018-06-16T09:16:54.346Z,25.38
2018-06-16T09:17:54.374Z,25.49
2018-06-16T09:18:54.403Z,25.82
2018-06-16T09:19:54.431Z,26.00
2018-06-16T09:20:54.456Z,26.03
2018-06-16T09:21:54.483Z,25.94
2018-06-16T09:22:54.512Z,26.04
2018-06-16T09:23:54.542Z,26.16
2018-06-16T09:24:54.570Z,26.07
2018-06-16T09:25:54.598Z,26.06
2018-06-16T09:26:54.625Z,26.07
2018-06-16T09:27:54.665Z,26.22
2018-06-16T09:28:54.679Z,26.22
2018-06-16T09:29:54.708Z,26.00
2018-06-16T09:30:54.738Z,25.49
2018-06-16T09:31:54.767Z,25.26
2018-06-16T09:32:54.793Z,25.11
2018-06-16T09:33:54.822Z,25.45
2018-06-16T09:34:54.852Z,25.57
2018-06-16T09:35:54.879Z,25.75
2018-06-16T09:36:54.907Z,25.59
2018-06-16T09:37:54.935Z,25.14
2018-06-16T09:38:54.962Z,25.19
2018-06-16T09:39:54.990Z,25.15
2018-06-16T09:40:55.053Z,24.93
2018-06-16T09:41:55.050Z,25.04
2018-06-16T09:42:55.074Z,25.14
2018-06-16T09:43:55.104Z,25.19
2018-06-16T09:44:55.133Z,25.08
2018-06-16T09:45:55.158Z,25.00
2018-06-16T09:46:55.188Z,25.12
2018-06-16T09:47:55.213Z,25.01
2018-06-16T09:48:55.245Z,24.90
2018-06-16T09:49:55.272Z,25.02
2018-06-16T09:50:55.301Z,24.80
2018-06-16T09:51:55.327Z,24.94
2018-06-16T09:52:55.355Z,25.19
2018-06-16T09:53:55.384Z,25.26
2018-06-16T09:54:55.411Z,25.30
2018-06-16T09:55:55.439Z,25.70
2018-06-16T09:56:55.465Z,25.76
2018-06-16T09:57:55.494Z,25.70
2018-06-16T09:58:55.523Z,26.01
2018-06-16T09:59:55.547Z,25.94
2018-06-16T10:00:55.574Z,25.97
2018-06-16T10:01:55.606Z,25.85
2018-06-16T10:02:55.633Z,25.62
2018-06-16T10:03:55.661Z,25.74
2018-06-16T10:04:55.689Z,26.09
2018-06-16T10:05:55.718Z,26.60
2018-06-16T10:06:55.743Z,26.81
2018-06-16T10:07:55.773Z,26.74
2018-06-16T10:08:55.802Z,26.75
2018-06-16T10:09:55.833Z,26.64
2018-06-16T10:10:55.858Z,26.64
2018-06-16T10:11:55.884Z,26.71
2018-06-16T10:12:55.915Z,26.78
2018-06-16T10:13:55.940Z,26.32
2018-06-16T10:14:55.969Z,26.01
2018-06-16T10:15:56.012Z,25.88
2018-06-16T10:16:56.027Z,25.99
2018-06-16T10:17:56.058Z,26.07
2018-06-16T10:18:56.084Z,26.20
2018-06-16T10:19:56.116Z,26.26
2018-06-16T10:20:56.143Z,26.39
2018-06-16T10:21:56.173Z,26.19
2018-06-16T10:22:56.199Z,26.30
2018-06-16T10:23:56.229Z,26.54
2018-06-16T10:24:56.260Z,26.50
2018-06-16T10:25:56.287Z,26.07
2018-06-16T10:26:56.316Z,26.03
2018-06-16T10:27:56.347Z,26.11
2018-06-16T10:28:56.425Z,26.19
2018-06-16T10:29:56.402Z,26.30
2018-06-16T10:30:56.431Z,26.34
2018-06-16T10:31:56.458Z,26.24
2018-06-16T10:32:56.484Z,26.35
2018-06-16T10:33:56.518Z,26.52
2018-06-16T10:34:56.546Z,26.45
2018-06-16T10:35:56.574Z,26.38
2018-06-16T10:36:56.600Z,26.47
2018-06-16T10:37:56.628Z,26.67
2018-06-16T10:38:56.662Z,26.76
2018-06-16T10:39:56.688Z,26.76
2018-06-16T10:40:56.719Z,26.57
2018-06-16T10:41:56.744Z,26.27
2018-06-16T10:42:56.774Z,26.23
2018-06-16T10:43:56.803Z,26.19
2018-06-16T10:44:56.830Z,26.22
2018-06-16T10:45:56.862Z,26.52
2018-06-16T10:46:56.890Z,26.26
2018-06-16T10:47:56.920Z,26.47
2018-06-16T10:48:56.944Z,26.09
2018-06-16T10:49:56.978Z,26.09
2018-06-16T10:50:57.001Z,26.19
2018-06-16T10:51:57.033Z,26.06
2018-06-16T10:52:57.059Z,26.15
2018-06-16T10:53:57.091Z,26.27
2018-06-16T10:54:57.118Z,26.38
2018-06-16T10:55:57.146Z,26.42
2018-06-16T10:56:57.173Z,26.06
2018-06-16T10:57:57.204Z,25.74
2018-06-16T10:58:57.229Z,25.71
2018-06-16T10:59:57.258Z,25.64
2018-06-16T11:00:57.286Z,25.42
2018-06-16T11:01:57.315Z,25.29
2018-06-16T11:02:57.345Z,25.48
2018-06-16T11:03:57.374Z,25.75
2018-06-16T11:04:57.402Z,26.00
2018-06-16T11:05:57.430Z,26.30
2018-06-16T11:06:57.460Z,26.47
2018-06-16T11:07:57.484Z,26.15
2018-06-16T11:08:57.515Z,26.01
2018-06-16T11:09:57.544Z,26.00
2018-06-16T11:10:57.570Z,26.15
2018-06-16T11:11:57.600Z,26.22
2018-06-16T11:12:57.629Z,26.15
2018-06-16T11:13:57.654Z,26.44
2018-06-16T11:14:57.685Z,26.45
2018-06-16T11:15:57.715Z,26.39
2018-06-16T11:16:57.738Z,26.11
2018-06-16T11:17:57.769Z,26.07
2018-06-16T11:18:57.843Z,26.22
2018-06-16T11:19:57.825Z,26.11
2018-06-16T11:20:57.856Z,25.85
2018-06-16T11:21:57.881Z,25.78
2018-06-16T11:22:57.910Z,25.42
2018-06-16T11:23:57.935Z,25.47
2018-06-16T11:24:57.962Z,25.11
2018-06-16T11:25:57.993Z,25.17
2018-06-16T11:26:58.021Z,25.30
2018-06-16T11:27:58.049Z,25.45
2018-06-16T11:28:58.078Z,25.48
2018-06-16T11:29:58.102Z,25.66
2018-06-16T11:30:58.130Z,25.93
2018-06-16T11:31:58.160Z,25.71
2018-06-16T11:32:58.189Z,25.97
2018-06-16T11:33:58.214Z,26.04
2018-06-16T11:34:58.244Z,26.23
2018-06-16T11:35:58.272Z,26.50
2018-06-16T11:36:58.298Z,26.63
2018-06-16T11:37:58.329Z,26.64
2018-06-16T11:38:58.353Z,26.82
2018-06-16T11:39:58.380Z,26.68
2018-06-16T11:40:58.408Z,26.60
2018-06-16T11:41:58.439Z,26.79
2018-06-16T11:42:58.466Z,26.99
2018-06-16T11:43:58.495Z,26.99
2018-06-16T11:44:58.524Z,26.74
2018-06-16T11:45:58.548Z,26.41
2018-06-16T11:46:58.578Z,26.63
2018-06-16T11:47:58.607Z,27.19
2018-06-16T11:48:58.638Z,27.38
2018-06-16T11:49:58.665Z,27.42
2018-06-16T11:50:58.693Z,27.43
2018-06-16T11:51:58.720Z,27.42
2018-06-16T11:52:58.749Z,27.68
2018-06-16T11:53:58.775Z,27.59
2018-06-16T11:54:58.806Z,27.55
2018-06-16T11:55:58.834Z,27.64
2018-06-16T11:56:58.870Z,27.00
2018-06-16T11:57:58.890Z,27.00
2018-06-16T11:58:58.925Z,27.09
2018-06-16T11:59:58.948Z,27.23
2018-06-16T12:00:58.975Z,27.24
2018-06-16T12:01:59.031Z,26.86
2018-06-16T12:02:59.067Z,26.68
2018-06-16T12:03:59.064Z,26.52
2018-06-16T12:04:59.094Z,26.60
2018-06-16T12:05:59.122Z,26.37
2018-06-16T12:06:59.148Z,26.23
2018-06-16T12:07:59.176Z,26.26
2018-06-16T12:08:59.207Z,26.11
2018-06-16T12:09:59.232Z,26.04
2018-06-16T12:10:59.269Z,26.23
2018-06-16T12:11:59.290Z,26.30
2018-06-16T12:12:59.322Z,26.30
2018-06-16T12:13:59.348Z,26.67
2018-06-16T12:14:59.377Z,26.99
2018-06-16T12:15:59.407Z,27.18
2018-06-16T12:16:59.432Z,27.43
2018-06-16T12:17:59.461Z,27.09
2018-06-16T12:18:59.492Z,27.11
2018-06-16T12:19:59.519Z,26.93
2018-06-16T12:20:59.545Z,26.87
2018-06-16T12:21:59.578Z,26.39
2018-06-16T12:22:59.605Z,26.44
2018-06-16T12:23:59.635Z,26.37
2018-06-16T12:24:59.660Z,26.45
2018-06-16T12:25:59.688Z,26.42
2018-06-16T12:26:59.716Z,26.41
2018-06-16T12:27:59.745Z,26.52
2018-06-16T12:28:59.774Z,26.84
2018-06-16T12:29:59.801Z,26.86
2018-06-16T12:30:59.830Z,26.99
2018-06-16T12:31:59.857Z,27.24
2018-06-16T12:32:59.885Z,27.48
2018-06-16T12:33:59.914Z,27.66
2018-06-16T12:34:59.941Z,27.69
2018-06-16T12:35:59.972Z,27.66
2018-06-16T12:37:00.002Z,27.51
2018-06-16T12:38:00.030Z,27.27
2018-06-16T12:39:00.056Z,27.27
2018-06-16T12:40:00.084Z,27.27
2018-06-16T12:41:00.114Z,27.00
2018-06-16T12:42:00.142Z,26.99
2018-06-16T12:43:00.172Z,26.63
2018-06-16T12:44:00.196Z,26.44
2018-06-16T12:45:00.228Z,26.56
2018-06-16T12:46:00.255Z,26.52
2018-06-16T12:47:00.282Z,26.53
2018-06-16T12:48:00.308Z,26.71
2018-06-16T12:49:00.341Z,26.75
2018-06-16T12:50:00.369Z,26.64
2018-06-16T12:51:00.394Z,26.81
2018-06-16T12:52:00.423Z,26.82
2018-06-16T12:53:00.450Z,26.68
2018-06-16T12:54:00.478Z,26.79
2018-06-16T12:55:00.506Z,26.76